createdAt,value
2019-04-11T00:00:15.557Z,3.60
2019-04-11T00:01:16.341Z,3.70
2019-04-11T00:02:16.427Z,3.40
2019-04-11T00:03:15.422Z,3.40
2019-04-11T00:04:15.710Z,3.70
2019-04-11T00:05:15.276Z,3.30
2019-04-11T00:06:15.221Z,3.30
2019-04-11T00:07:16.150Z,3.70
2019-04-11T00:08:15.106Z,3.60
2019-04-11T00:09:15.094Z,3.50
2019-04-11T00:10:14.995Z,3.30
2019-04-11T00:11:14.945Z,3.50
2019-04-11T00:12:14.880Z,3.60
2019-04-11T00:13:21.575Z,3.70
2019-04-11T00:14:15.827Z,3.50
2019-04-11T00:15:14.741Z,3.60
2019-04-11T00:16:15.242Z,3.30
2019-04-11T00:17:14.589Z,3.40
2019-04-11T00:18:14.545Z,3.80
2019-04-11T00:19:15.512Z,3.50
2019-04-11T00:20:14.453Z,3.90
2019-04-11T00:21:14.809Z,4.10
2019-04-11T00:22:14.325Z,3.60
2019-04-11T00:23:14.260Z,3.60
2019-04-11T00:24:14.469Z,3.70
2019-04-11T00:25:14.172Z,3.50
2019-04-11T00:26:14.093Z,3.60
2019-04-11T00:27:14.946Z,3.70
2019-04-11T00:28:13.978Z,3.70
2019-04-11T00:29:14.355Z,3.80
2019-04-11T00:30:13.892Z,3.90
2019-04-11T00:31:14.639Z,4.00
2019-04-11T00:32:13.758Z,3.90
2019-04-11T00:33:13.969Z,3.70
2019-04-11T00:34:13.645Z,3.90
2019-04-11T00:35:13.603Z,3.80
2019-04-11T00:36:14.517Z,3.70
2019-04-11T00:37:13.472Z,4.10
2019-04-11T00:38:13.887Z,3.80
2019-04-11T00:39:13.358Z,3.60
2019-04-11T00:40:13.325Z,3.80
2019-04-11T00:41:13.433Z,3.80
2019-04-11T00:42:13.191Z,3.80
2019-04-11T00:43:13.130Z,3.70
2019-04-11T00:44:13.076Z,3.70
2019-04-11T00:45:13.664Z,3.90
2019-04-11T00:46:12.987Z,3.60
2019-04-11T00:47:13.095Z,3.90
2019-04-11T00:48:13.323Z,3.70
2019-04-11T00:49:12.795Z,4.10
2019-04-11T00:50:12.807Z,4.00
2019-04-11T00:51:13.869Z,3.80
2019-04-11T00:52:12.621Z,3.70
2019-04-11T00:53:12.572Z,4.00
2019-04-11T00:54:12.506Z,3.90
2019-04-11T00:55:13.358Z,3.90
2019-04-11T00:56:12.466Z,4.00
2019-04-11T00:57:12.791Z,4.20
2019-04-11T00:58:12.293Z,3.90
2019-04-11T00:59:12.286Z,4.30
2019-04-11T01:00:13.105Z,3.70
2019-04-11T01:01:12.116Z,4.20
2019-04-11T01:02:12.061Z,4.10
2019-04-11T01:03:11.999Z,3.90
2019-04-11T01:04:11.943Z,4.10
2019-04-11T01:05:12.935Z,3.90
2019-04-11T01:06:12.220Z,4.00
2019-04-11T01:07:11.783Z,3.80
2019-04-11T01:08:11.719Z,3.80
2019-04-11T01:09:12.507Z,4.00
2019-04-11T01:10:11.631Z,4.00
2019-04-11T01:11:11.988Z,4.00
2019-04-11T01:12:12.198Z,3.70
2019-04-11T01:13:11.437Z,4.20
2019-04-11T01:14:11.402Z,4.10
2019-04-11T01:15:11.322Z,3.90
2019-04-11T01:16:11.296Z,3.70
2019-04-11T01:17:11.210Z,3.90
2019-04-11T01:18:11.893Z,3.80
2019-04-11T01:19:11.102Z,3.70
2019-04-11T01:20:11.320Z,4.00
2019-04-11T01:21:11.006Z,4.00
2019-04-11T01:22:10.926Z,3.70
2019-04-11T01:23:11.056Z,4.10
2019-04-11T01:24:11.372Z,4.10
2019-04-11T01:25:10.757Z,4.10
2019-04-11T01:26:10.791Z,4.00
2019-04-11T01:27:11.792Z,4.30
2019-04-11T01:28:10.586Z,4.30
2019-04-11T01:29:11.311Z,4.30
2019-04-11T01:30:11.594Z,4.00
2019-04-11T01:31:11.510Z,4.20
2019-04-11T01:32:10.524Z,4.20
2019-04-11T01:33:10.867Z,4.00
2019-04-11T01:34:10.640Z,3.80
2019-04-11T01:35:10.183Z,3.90
2019-04-11T01:36:11.210Z,3.90
2019-04-11T01:37:11.291Z,3.80
2019-04-11T01:38:10.349Z,4.00
2019-04-11T01:39:10.654Z,3.70
2019-04-11T01:40:09.940Z,3.90
2019-04-11T01:41:10.070Z,4.20
2019-04-11T01:42:09.795Z,3.80
2019-04-11T01:43:09.731Z,4.10
2019-04-11T01:44:09.675Z,4.20
2019-04-11T01:45:09.723Z,4.10
2019-04-11T01:46:09.699Z,4.00
2019-04-11T01:47:09.508Z,4.00
2019-04-11T01:48:09.451Z,4.20
2019-04-11T01:49:10.204Z,4.30
2019-04-11T01:50:10.509Z,4.30
2019-04-11T01:51:09.647Z,3.80
2019-04-11T01:52:09.847Z,4.10
2019-04-11T01:53:09.165Z,4.10
2019-04-11T01:54:09.106Z,4.30
2019-04-11T01:55:10.216Z,4.20
2019-04-11T01:56:09.377Z,4.00
2019-04-11T01:57:09.716Z,4.10
2019-04-11T01:58:08.880Z,4.20
2019-04-11T01:59:08.987Z,3.80
2019-04-11T02:00:09.712Z,3.80
2019-04-11T02:01:08.739Z,4.00
2019-04-11T02:02:09.561Z,4.10
2019-04-11T02:03:08.848Z,4.10
2019-04-11T02:04:08.542Z,4.00
2019-04-11T02:05:08.481Z,3.70
2019-04-11T02:06:09.658Z,4.20
2019-04-11T02:07:08.365Z,4.30
2019-04-11T02:08:09.249Z,4.20
2019-04-11T02:09:08.255Z,4.40
2019-04-11T02:10:08.529Z,4.20
2019-04-11T02:11:08.233Z,4.20
2019-04-11T02:12:08.085Z,4.00
2019-04-11T02:13:08.039Z,4.30
2019-04-11T02:14:14.280Z,3.90
2019-04-11T02:15:08.263Z,4.10
2019-04-11T02:16:08.498Z,4.20
2019-04-11T02:17:08.551Z,4.10
2019-04-11T02:18:07.740Z,4.10
2019-04-11T02:19:07.941Z,4.40
2019-04-11T02:20:07.626Z,4.50
2019-04-11T02:21:07.594Z,4.30
2019-04-11T02:22:07.856Z,4.10
2019-04-11T02:23:07.632Z,4.00
2019-04-11T02:24:07.833Z,3.90
2019-04-11T02:25:08.109Z,4.10
2019-04-11T02:26:07.310Z,3.90
2019-04-11T02:27:08.488Z,4.10
2019-04-11T02:28:07.173Z,3.90
2019-04-11T02:29:07.115Z,4.50
2019-04-11T02:30:08.583Z,4.20
2019-04-11T02:31:09.401Z,4.20
2019-04-11T02:32:07.571Z,4.20
2019-04-11T02:33:07.665Z,4.40
2019-04-11T02:34:08.617Z,4.20
2019-04-11T02:35:08.339Z,4.20
2019-04-11T02:36:07.946Z,4.30
2019-04-11T02:37:07.065Z,4.50
2019-04-11T02:38:07.659Z,4.60
2019-04-11T02:39:12.126Z,4.30
2019-04-11T02:40:07.523Z,4.30
2019-04-11T02:41:08.559Z,4.40
2019-04-11T02:42:06.735Z,4.50
2019-04-11T02:43:07.765Z,4.20
2019-04-11T02:44:26.497Z,4.10
2019-04-11T02:45:22.314Z,4.30
2019-04-11T02:46:16.903Z,4.50
2019-04-11T02:47:11.769Z,4.30
2019-04-11T02:48:08.196Z,4.40
2019-04-11T02:49:06.100Z,4.70
2019-04-11T02:50:06.501Z,4.70
2019-04-11T02:51:07.603Z,4.50
2019-04-11T02:52:07.118Z,4.50
2019-04-11T02:53:07.290Z,4.30
2019-04-11T02:54:06.924Z,4.50
2019-04-11T02:55:06.223Z,4.50
2019-04-11T02:56:06.307Z,4.60
2019-04-11T02:57:05.811Z,4.50
2019-04-11T02:58:06.299Z,4.60
2019-04-11T02:59:05.544Z,4.80
2019-04-11T03:00:06.399Z,4.50
2019-04-11T03:01:07.310Z,4.50
2019-04-11T03:02:06.838Z,4.60
2019-04-11T03:03:05.662Z,4.90
2019-04-11T03:04:06.652Z,4.60
2019-04-11T03:05:06.809Z,4.60
2019-04-11T03:06:06.908Z,4.70
2019-04-11T03:07:05.923Z,4.30
2019-04-11T03:08:07.842Z,4.70
2019-04-11T03:09:06.475Z,4.50
2019-04-11T03:10:05.120Z,4.40
2019-04-11T03:11:05.385Z,4.50
2019-04-11T03:12:05.190Z,4.70
2019-04-11T03:13:04.902Z,4.80
2019-04-11T03:14:04.988Z,4.70
2019-04-11T03:15:20.683Z,4.50
2019-04-11T03:16:17.196Z,4.80
2019-04-11T03:17:12.811Z,5.20
2019-04-11T03:18:08.367Z,4.60
2019-04-11T03:19:18.038Z,4.50
2019-04-11T03:20:15.515Z,5.00
2019-04-11T03:21:10.310Z,4.60
2019-04-11T03:22:05.484Z,4.90
2019-04-11T03:23:07.509Z,4.70
2019-04-11T03:24:06.116Z,4.60
2019-04-11T03:25:06.111Z,4.60
2019-04-11T03:26:05.338Z,4.90
2019-04-11T03:27:04.904Z,4.70
2019-04-11T03:28:04.946Z,4.70
2019-04-11T03:29:04.134Z,5.10
2019-04-11T03:30:06.807Z,4.90
2019-04-11T03:31:37.293Z,4.80
2019-04-11T03:32:37.029Z,4.70
2019-04-11T03:38:23.134Z,5.00
2019-04-11T03:39:21.606Z,4.90
2019-04-11T03:40:22.451Z,5.00
2019-04-11T03:41:22.005Z,5.30
2019-04-11T03:42:16.925Z,4.90
2019-04-11T03:43:16.393Z,5.10
2019-04-11T03:44:12.052Z,5.30
2019-04-11T03:45:27.047Z,5.40
2019-04-11T03:46:19.451Z,5.20
2019-04-11T03:47:16.643Z,5.20
2019-04-11T03:48:19.703Z,4.90
2019-04-11T03:49:16.411Z,5.30
2019-04-11T03:50:08.369Z,4.80
2019-04-11T03:51:03.983Z,5.20
2019-04-11T03:52:03.603Z,5.10
2019-04-11T03:53:04.090Z,5.00
2019-04-11T03:54:02.622Z,5.20
2019-04-11T03:55:03.963Z,5.20
2019-04-11T03:56:03.715Z,5.10
2019-04-11T03:57:03.597Z,5.40
2019-04-11T03:58:03.642Z,4.70
2019-04-11T03:59:03.791Z,5.20
2019-04-11T04:00:03.634Z,5.00
2019-04-11T04:01:05.539Z,5.30
2019-04-11T04:02:03.136Z,5.30
2019-04-11T04:03:03.795Z,5.10
2019-04-11T04:04:02.714Z,5.20
2019-04-11T04:05:03.760Z,5.10
2019-04-11T04:06:01.938Z,5.40
2019-04-11T04:07:02.552Z,5.40
2019-04-11T04:08:03.864Z,5.20
2019-04-11T04:09:02.791Z,5.60
2019-04-11T04:10:03.039Z,5.30
2019-04-11T04:11:01.271Z,5.20
2019-04-11T04:12:02.740Z,5.20
2019-04-11T04:13:03.278Z,5.40
2019-04-11T04:14:02.147Z,5.30
2019-04-11T04:15:01.499Z,5.80
2019-04-11T04:16:12.042Z,5.60
2019-04-11T04:17:03.812Z,5.40
2019-04-11T04:18:00.890Z,5.30
2019-04-11T04:19:01.715Z,5.60
2019-04-11T04:20:02.218Z,5.20
2019-04-11T04:21:01.859Z,5.30
2019-04-11T04:22:00.640Z,5.30
2019-04-11T04:23:00.959Z,5.20
2019-04-11T04:24:03.681Z,5.40
2019-04-11T04:25:01.105Z,5.50
2019-04-11T04:26:01.096Z,5.20
2019-04-11T04:27:01.726Z,5.60
2019-04-11T04:28:00.442Z,5.60
2019-04-11T04:29:01.919Z,5.30
2019-04-11T04:30:02.997Z,5.40
2019-04-11T04:31:00.277Z,5.50
2019-04-11T04:32:00.063Z,5.40
2019-04-11T04:33:00.655Z,5.80
2019-04-11T04:34:01.861Z,5.80
2019-04-11T04:35:01.228Z,5.90
2019-04-11T04:36:00.182Z,6.00
2019-04-11T04:37:00.092Z,5.30
2019-04-11T04:37:59.818Z,5.80
2019-04-11T04:39:01.257Z,5.80
2019-04-11T04:40:21.718Z,5.90
2019-04-11T04:41:09.998Z,5.90
2019-04-11T04:42:08.308Z,5.70
2019-04-11T04:43:01.224Z,5.60
2019-04-11T04:44:01.503Z,5.40
2019-04-11T04:44:59.713Z,5.90
2019-04-11T04:46:20.509Z,5.80
2019-04-11T04:47:13.086Z,5.90
2019-04-11T04:48:04.554Z,5.70
2019-04-11T04:48:59.145Z,5.70
2019-04-11T04:49:59.466Z,6.10
2019-04-11T04:51:04.018Z,5.90
2019-04-11T04:51:59.413Z,6.10
2019-04-11T04:53:00.916Z,5.70
2019-04-11T04:54:00.088Z,6.10
2019-04-11T04:54:59.440Z,5.60
2019-04-11T04:56:00.291Z,5.80
2019-04-11T04:56:58.613Z,5.80
2019-04-11T04:57:59.809Z,5.90
2019-04-11T04:58:58.947Z,6.10
2019-04-11T04:59:59.889Z,6.00
2019-04-11T05:00:58.691Z,5.90
2019-04-11T05:01:59.330Z,6.00
2019-04-11T05:02:59.874Z,5.90
2019-04-11T05:03:58.336Z,5.90
2019-04-11T05:04:58.728Z,6.20
2019-04-11T05:05:58.440Z,5.60
2019-04-11T05:06:59.026Z,5.80
2019-04-11T05:07:58.327Z,6.10
2019-04-11T05:08:58.180Z,5.60
2019-04-11T05:09:58.652Z,5.90
2019-04-11T05:10:57.997Z,5.50
2019-04-11T05:11:57.755Z,5.50
2019-04-11T05:12:59.059Z,5.60
2019-04-11T05:13:58.727Z,5.60
2019-04-11T05:14:57.582Z,5.80
2019-04-11T05:16:09.844Z,6.20
2019-04-11T05:16:58.083Z,5.60
2019-04-11T05:17:57.753Z,5.70
2019-04-11T05:18:58.331Z,5.80
2019-04-11T05:19:58.430Z,6.10
2019-04-11T05:20:57.240Z,5.80
2019-04-11T05:21:57.563Z,6.10
2019-04-11T05:22:57.966Z,7.40
2019-04-11T05:23:57.085Z,5.90
2019-04-11T05:25:01.195Z,6.00
2019-04-11T05:25:57.191Z,6.10
2019-04-11T05:26:57.882Z,5.90
2019-04-11T05:27:58.089Z,5.80
2019-04-11T05:28:57.198Z,5.70
2019-04-11T05:29:56.735Z,5.80
2019-04-11T05:30:56.660Z,5.70
2019-04-11T05:31:56.765Z,5.80
2019-04-11T05:32:57.657Z,5.80
2019-04-11T05:33:56.517Z,6.00
2019-04-11T05:34:56.427Z,5.70
2019-04-11T05:35:56.473Z,6.10
2019-04-11T05:36:57.523Z,5.60
2019-04-11T05:37:56.258Z,5.90
2019-04-11T05:38:56.224Z,6.00
2019-04-11T05:39:56.706Z,6.00
2019-04-11T05:40:56.636Z,5.70
2019-04-11T05:41:56.716Z,5.90
2019-04-11T05:42:55.970Z,5.80
2019-04-11T05:44:00.475Z,5.80
2019-04-11T05:44:56.869Z,6.00
2019-04-11T05:45:56.717Z,6.10
2019-04-11T05:46:59.154Z,6.20
2019-04-11T05:47:57.083Z,6.00
2019-04-11T05:49:00.481Z,5.90
2019-04-11T05:49:56.773Z,6.00
2019-04-11T05:50:56.229Z,5.60
2019-04-11T05:51:58.148Z,6.10
2019-04-11T05:52:56.625Z,6.00
2019-04-11T05:53:55.833Z,5.70
2019-04-11T05:54:55.317Z,6.00
2019-04-11T05:55:55.291Z,5.70
2019-04-11T05:56:57.698Z,6.00
2019-04-11T05:57:55.103Z,6.00
2019-04-11T05:58:55.626Z,6.10
2019-04-11T05:59:56.211Z,5.90
2019-04-11T06:00:55.820Z,5.90
2019-04-11T06:01:55.001Z,6.20
2019-04-11T06:02:54.819Z,6.20
2019-04-11T06:03:55.506Z,6.20
2019-04-11T06:04:56.191Z,6.10
2019-04-11T06:05:55.112Z,6.30
2019-04-11T06:06:56.845Z,6.40
2019-04-11T06:07:56.482Z,6.00
2019-04-11T06:08:58.409Z,6.00
2019-04-11T06:09:54.659Z,6.00
2019-04-11T06:10:54.724Z,5.70
2019-04-11T06:11:55.875Z,5.80
2019-04-11T06:12:54.727Z,6.00
2019-04-11T06:13:54.207Z,6.40
2019-04-11T06:14:54.124Z,6.00
2019-04-11T06:15:54.070Z,5.80
2019-04-11T06:16:55.848Z,6.00
2019-04-11T06:17:54.556Z,6.00
2019-04-11T06:18:54.296Z,5.70
2019-04-11T06:19:53.839Z,5.60
2019-04-11T06:20:53.780Z,5.60
2019-04-11T06:21:53.733Z,5.40
2019-04-11T06:22:54.077Z,6.10
2019-04-11T06:23:53.873Z,5.80
2019-04-11T06:24:53.552Z,5.90
2019-04-11T06:25:53.495Z,5.70
2019-04-11T06:26:54.651Z,5.80
2019-04-11T06:27:53.699Z,5.70
2019-04-11T06:28:55.455Z,5.70
2019-04-11T06:29:53.291Z,5.80
2019-04-11T06:30:53.207Z,6.00
2019-04-11T06:31:53.147Z,5.90
2019-04-11T06:32:54.229Z,5.60
2019-04-11T06:33:53.182Z,6.00
2019-04-11T06:34:53.000Z,6.30
2019-04-11T06:35:52.927Z,6.00
2019-04-11T06:36:53.021Z,5.70
2019-04-11T06:37:52.816Z,6.00
2019-04-11T06:38:52.757Z,5.80
2019-04-11T06:39:53.954Z,5.70
2019-04-11T06:40:52.636Z,5.80
2019-04-11T06:41:52.767Z,5.90
2019-04-11T06:42:52.526Z,5.90
2019-04-11T06:43:52.471Z,5.70
2019-04-11T06:44:52.439Z,5.40
2019-04-11T06:45:52.439Z,6.00
2019-04-11T06:46:55.367Z,5.80
2019-04-11T06:47:53.382Z,5.30
2019-04-11T06:48:52.193Z,5.80
2019-04-11T06:49:53.031Z,5.70
2019-04-11T06:50:52.079Z,5.90
2019-04-11T06:51:52.580Z,6.20
2019-04-11T06:52:52.947Z,5.80
2019-04-11T06:53:52.596Z,6.60
2019-04-11T06:54:52.415Z,5.70
2019-04-11T06:55:53.082Z,6.00
2019-04-11T06:56:52.223Z,5.90
2019-04-11T06:57:51.692Z,5.90
2019-04-11T06:58:53.546Z,5.90
2019-04-11T06:59:52.457Z,6.50
2019-04-11T07:00:51.738Z,6.00
2019-04-11T07:01:51.470Z,5.90
2019-04-11T07:02:51.412Z,5.80
2019-04-11T07:03:51.359Z,5.70
2019-04-11T07:04:51.743Z,5.60
2019-04-11T07:05:51.252Z,5.50
2019-04-11T07:06:51.753Z,5.80
2019-04-11T07:07:51.579Z,5.70
2019-04-11T07:08:51.172Z,5.70
2019-04-11T07:09:51.190Z,5.80
2019-04-11T07:10:51.163Z,5.70
2019-04-11T07:11:50.919Z,5.70
2019-04-11T07:12:53.040Z,5.70
2019-04-11T07:13:50.809Z,5.60
2019-04-11T07:14:50.773Z,6.20
2019-04-11T07:15:50.698Z,6.20
2019-04-11T07:17:00.476Z,5.90
2019-04-11T07:17:50.595Z,6.00
2019-04-11T07:18:50.624Z,6.10
2019-04-11T07:19:51.520Z,5.70
2019-04-11T07:20:50.429Z,6.00
2019-04-11T07:21:50.388Z,5.80
2019-04-11T07:22:50.975Z,6.10
2019-04-11T07:23:51.377Z,5.80
2019-04-11T07:24:50.238Z,6.30
2019-04-11T07:25:50.158Z,6.00
2019-04-11T07:26:50.150Z,6.10
2019-04-11T07:27:50.712Z,6.30
2019-04-11T07:28:50.246Z,6.20
2019-04-11T07:29:50.734Z,6.00
2019-04-11T07:30:49.878Z,6.20
2019-04-11T07:31:50.403Z,6.00
2019-04-11T07:32:50.823Z,6.10
2019-04-11T07:33:49.717Z,6.40
2019-04-11T07:34:49.913Z,6.40
2019-04-11T07:35:50.790Z,6.60
2019-04-11T07:36:49.555Z,6.50
2019-04-11T07:37:49.544Z,6.40
2019-04-11T07:38:52.139Z,6.40
2019-04-11T07:39:49.514Z,6.50
2019-04-11T07:40:50.224Z,6.70
2019-04-11T07:41:49.981Z,6.80
2019-04-11T07:42:49.865Z,6.40
2019-04-11T07:43:50.024Z,6.30
2019-04-11T07:44:49.517Z,6.50
2019-04-11T07:45:49.091Z,6.80
2019-04-11T07:46:49.516Z,6.50
2019-04-11T07:47:48.953Z,6.60
2019-04-11T07:48:48.898Z,6.50
2019-04-11T07:49:49.641Z,6.40
2019-04-11T07:50:48.858Z,6.70
2019-04-11T07:51:48.738Z,6.60
2019-04-11T07:52:48.676Z,6.80
2019-04-11T07:53:48.625Z,6.80
2019-04-11T07:54:48.602Z,6.40
2019-04-11T07:55:48.515Z,6.60
2019-04-11T07:56:48.626Z,6.90
2019-04-11T07:57:48.984Z,6.70
2019-04-11T07:58:48.352Z,6.60
2019-04-11T07:59:49.072Z,6.60
2019-04-11T08:00:51.338Z,6.70
2019-04-11T08:01:48.190Z,6.40
2019-04-11T08:02:48.130Z,7.00
2019-04-11T08:03:49.067Z,6.60
2019-04-11T08:04:48.034Z,6.60
2019-04-11T08:05:47.992Z,6.40
2019-04-11T08:06:47.965Z,6.80
2019-04-11T08:07:49.034Z,6.70
2019-04-11T08:08:47.807Z,6.30
2019-04-11T08:09:48.318Z,6.90
2019-04-11T08:10:48.461Z,6.60
2019-04-11T08:11:47.794Z,6.80
2019-04-11T08:14:20.241Z,6.90
2019-04-11T08:15:19.624Z,6.70
2019-04-11T08:16:20.324Z,6.90
2019-04-11T08:17:30.084Z,6.50
2019-04-11T08:18:18.959Z,6.40
2019-04-11T08:19:20.731Z,6.80
2019-04-11T08:20:19.379Z,6.70
2019-04-11T08:21:19.935Z,6.90
2019-04-11T08:22:19.091Z,6.90
2019-04-11T08:23:19.398Z,6.60
2019-04-11T08:24:18.621Z,7.00
2019-04-11T08:25:18.599Z,7.00
2019-04-11T08:26:18.529Z,7.20
2019-04-11T08:27:19.648Z,6.70
2019-04-11T08:28:18.585Z,7.20
2019-04-11T08:29:18.348Z,6.90
2019-04-11T08:30:19.066Z,6.80
2019-04-11T08:31:19.203Z,6.70
2019-04-11T08:32:18.189Z,6.70
2019-04-11T08:33:18.376Z,6.60
2019-04-11T08:34:18.078Z,6.60
2019-04-11T08:35:18.029Z,7.00
2019-04-11T08:36:17.995Z,6.80
2019-04-11T08:37:19.257Z,7.10
2019-04-11T08:38:18.501Z,6.90
2019-04-11T08:39:17.814Z,6.90
2019-04-11T08:40:17.782Z,7.30
2019-04-11T08:41:17.736Z,6.70
2019-04-11T08:42:17.667Z,7.40
2019-04-11T08:43:17.687Z,6.90
2019-04-11T08:44:17.540Z,7.00
2019-04-11T08:45:17.592Z,6.80
2019-04-11T08:46:18.455Z,6.70
2019-04-11T08:47:18.332Z,7.20
2019-04-11T08:48:17.329Z,7.10
2019-04-11T08:49:17.368Z,7.40
2019-04-11T08:50:18.274Z,6.90
2019-04-11T08:51:17.188Z,7.20
2019-04-11T08:52:18.001Z,6.80
2019-04-11T08:53:18.191Z,7.50
2019-04-11T08:54:17.465Z,6.80
2019-04-11T08:55:17.264Z,6.80
2019-04-11T08:56:16.936Z,7.60
2019-04-11T08:57:17.854Z,7.00
2019-04-11T08:58:16.794Z,7.10
2019-04-11T08:59:17.280Z,7.20
2019-04-11T09:00:17.738Z,6.90
2019-04-11T09:01:17.956Z,7.10
2019-04-11T09:02:16.579Z,7.10
2019-04-11T09:03:17.615Z,7.10
2019-04-11T09:04:16.801Z,7.00
2019-04-11T09:05:18.785Z,7.70
2019-04-11T09:06:16.675Z,7.00
2019-04-11T09:07:17.049Z,6.90
2019-04-11T09:08:16.431Z,7.20
2019-04-11T09:09:16.320Z,7.30
2019-04-11T09:10:16.142Z,7.30
2019-04-11T09:11:17.012Z,7.10
2019-04-11T09:12:16.260Z,7.80
2019-04-11T09:13:17.132Z,7.10
2019-04-11T09:14:16.018Z,6.60
2019-04-11T09:15:16.852Z,7.60
2019-04-11T09:16:15.864Z,6.90
2019-04-11T09:17:16.471Z,6.90
2019-04-11T09:18:15.747Z,7.00
2019-04-11T09:19:16.732Z,7.20
2019-04-11T09:20:15.700Z,7.10
2019-04-11T09:21:16.025Z,6.90
2019-04-11T09:22:15.561Z,7.10
2019-04-11T09:23:15.489Z,7.00
2019-04-11T09:24:16.680Z,7.30
2019-04-11T09:25:15.389Z,7.50
2019-04-11T09:26:15.993Z,7.20
2019-04-11T09:27:16.237Z,7.60
2019-04-11T09:28:15.439Z,7.30
2019-04-11T09:29:15.606Z,7.70
2019-04-11T09:30:16.271Z,7.40
2019-04-11T09:31:15.416Z,6.90
2019-04-11T09:32:15.963Z,7.30
2019-04-11T09:33:15.111Z,6.70
2019-04-11T09:34:14.883Z,7.20
2019-04-11T09:35:14.829Z,7.40
2019-04-11T09:36:15.568Z,7.20
2019-04-11T09:37:17.055Z,7.30
2019-04-11T09:38:15.946Z,6.90
2019-04-11T09:39:15.051Z,7.20
2019-04-11T09:40:15.365Z,7.00
2019-04-11T09:41:14.544Z,7.10
2019-04-11T09:42:14.467Z,7.40
2019-04-11T09:43:15.670Z,7.30
2019-04-11T09:44:14.862Z,6.60
2019-04-11T09:45:14.340Z,7.40
2019-04-11T09:46:14.513Z,7.30
2019-04-11T09:47:15.471Z,7.00
2019-04-11T09:48:17.547Z,6.90
2019-04-11T09:49:15.011Z,7.30
2019-04-11T09:50:14.040Z,7.10
2019-04-11T09:51:14.042Z,6.90
2019-04-11T09:52:14.263Z,7.10
2019-04-11T09:53:14.204Z,7.00
2019-04-11T09:54:13.839Z,6.80
2019-04-11T09:55:14.965Z,6.90
2019-04-11T09:56:13.738Z,7.00
2019-04-11T09:57:13.729Z,6.90
2019-04-11T09:58:13.641Z,7.60
2019-04-11T09:59:14.304Z,7.10
2019-04-11T10:00:14.373Z,6.80
2019-04-11T10:01:13.453Z,7.30
2019-04-11T10:02:14.523Z,7.00
2019-04-11T10:03:13.364Z,7.00
2019-04-11T10:04:14.359Z,7.20
2019-04-11T10:05:13.751Z,7.30
2019-04-11T10:06:13.998Z,7.10
2019-04-11T10:07:13.216Z,7.20
2019-04-11T10:08:13.118Z,7.80
2019-04-11T10:09:13.533Z,7.30
2019-04-11T10:10:12.994Z,7.20
2019-04-11T10:11:13.541Z,7.40
2019-04-11T10:12:13.813Z,7.00
2019-04-11T10:13:13.010Z,7.20
2019-04-11T10:14:13.536Z,6.60
2019-04-11T10:15:13.575Z,6.80
2019-04-11T10:16:12.673Z,7.50
2019-04-11T10:17:12.729Z,7.20
2019-04-11T10:18:21.945Z,7.20
2019-04-11T10:19:13.723Z,6.80
2019-04-11T10:20:12.763Z,7.30
2019-04-11T10:21:13.026Z,6.80
2019-04-11T10:22:13.112Z,7.40
2019-04-11T10:23:12.492Z,7.50
2019-04-11T10:24:15.784Z,7.10
2019-04-11T10:25:12.826Z,7.00
2019-04-11T10:26:12.148Z,7.00
2019-04-11T10:27:12.339Z,7.30
2019-04-11T10:28:13.234Z,7.00
2019-04-11T10:29:12.004Z,7.40
2019-04-11T10:30:12.994Z,7.10
2019-04-11T10:31:12.673Z,7.10
2019-04-11T10:32:11.858Z,7.40
2019-04-11T10:33:12.887Z,7.30
2019-04-11T10:34:11.734Z,7.30
2019-04-11T10:35:12.186Z,7.40
2019-04-11T10:36:12.544Z,7.10
2019-04-11T10:37:11.803Z,7.50
2019-04-11T10:38:11.967Z,7.40
2019-04-11T10:39:11.462Z,7.50
2019-04-11T10:40:11.417Z,7.00
2019-04-11T10:41:12.476Z,7.50
2019-04-11T10:42:12.514Z,7.20
2019-04-11T10:43:11.895Z,6.90
2019-04-11T10:44:11.739Z,7.50
2019-04-11T10:45:12.185Z,7.20
2019-04-11T10:46:11.309Z,7.30
2019-04-11T10:47:12.353Z,7.10
2019-04-11T10:48:11.665Z,7.20
2019-04-11T10:49:11.647Z,7.50
2019-04-11T10:50:11.121Z,7.30
2019-04-11T10:51:10.893Z,7.30
2019-04-11T10:52:11.934Z,7.40
2019-04-11T10:53:11.015Z,7.20
2019-04-11T10:54:11.399Z,7.70
2019-04-11T10:55:11.415Z,7.50
2019-04-11T10:56:10.825Z,7.40
2019-04-11T10:57:11.811Z,7.40
2019-04-11T10:58:10.900Z,7.60
2019-04-11T10:59:10.449Z,7.20
2019-04-11T11:00:11.176Z,7.90
2019-04-11T11:01:11.324Z,7.20
2019-04-11T11:02:10.700Z,7.10
2019-04-11T11:03:10.202Z,7.40
2019-04-11T11:04:10.157Z,7.50
2019-04-11T11:05:10.107Z,7.20
2019-04-11T11:06:10.072Z,7.30
2019-04-11T11:07:11.409Z,7.50
2019-04-11T11:08:10.013Z,7.40
2019-04-11T11:09:10.109Z,7.40
2019-04-11T11:10:11.044Z,7.40
2019-04-11T11:11:12.621Z,7.40
2019-04-11T11:12:10.577Z,7.50
2019-04-11T11:13:09.736Z,7.40
2019-04-11T11:14:10.205Z,7.50
2019-04-11T11:15:09.775Z,7.20
2019-04-11T11:16:09.512Z,6.90
2019-04-11T11:17:09.475Z,7.60
2019-04-11T11:18:43.948Z,7.40
2019-04-11T11:19:37.219Z,7.50
2019-04-11T11:20:21.212Z,7.40
2019-04-11T11:21:09.414Z,6.90
2019-04-11T11:22:10.443Z,7.30
2019-04-11T11:23:11.205Z,7.20
2019-04-11T11:24:10.243Z,7.60
2019-04-11T11:25:13.185Z,7.20
2019-04-11T11:26:09.093Z,7.50
2019-04-11T11:27:09.438Z,7.30
2019-04-11T11:28:09.500Z,7.30
2019-04-11T11:29:13.451Z,7.10
2019-04-11T11:30:08.770Z,7.50
2019-04-11T11:31:08.755Z,7.10
2019-04-11T11:32:09.166Z,6.90
2019-04-11T11:33:09.851Z,7.10
2019-04-11T11:34:09.251Z,7.10
2019-04-11T11:35:08.510Z,7.10
2019-04-11T11:36:10.718Z,7.00
2019-04-11T11:37:08.989Z,7.30
2019-04-11T11:38:09.348Z,7.20
2019-04-11T11:39:08.873Z,7.00
2019-04-11T11:40:13.023Z,7.10
2019-04-11T11:41:08.204Z,7.30
2019-04-11T11:42:08.330Z,6.60
2019-04-11T11:43:08.695Z,6.90
2019-04-11T11:44:08.033Z,6.60
2019-04-11T11:45:08.951Z,6.50
2019-04-11T11:46:07.935Z,7.00
2019-04-11T11:47:08.009Z,6.80
2019-04-11T11:48:12.839Z,6.40
2019-04-11T11:49:08.009Z,6.60
2019-04-11T11:50:11.673Z,6.40
2019-04-11T11:51:08.719Z,6.30
2019-04-11T11:52:08.843Z,6.30
2019-04-11T11:53:10.278Z,6.50
2019-04-11T11:54:07.511Z,6.40
2019-04-11T11:55:08.292Z,6.50
2019-04-11T11:56:07.572Z,6.30
2019-04-11T11:57:08.604Z,6.70
2019-04-11T11:58:07.354Z,6.30
2019-04-11T11:59:07.249Z,6.30
2019-04-11T12:00:07.221Z,6.10
2019-04-11T12:01:09.347Z,5.90
2019-04-11T12:02:07.352Z,5.90
2019-04-11T12:03:07.066Z,6.20
2019-04-11T12:04:06.985Z,6.50
2019-04-11T12:05:11.281Z,6.60
2019-04-11T12:06:07.234Z,6.20
2019-04-11T12:07:07.165Z,5.90
2019-04-11T12:08:11.620Z,6.50
2019-04-11T12:09:06.728Z,5.70
2019-04-11T12:10:06.869Z,5.70
2019-04-11T12:11:06.614Z,5.90
2019-04-11T12:12:06.550Z,5.40
2019-04-11T12:13:10.862Z,6.10
2019-04-11T12:14:07.567Z,5.50
2019-04-11T12:15:07.659Z,5.80
2019-04-11T12:16:06.355Z,6.00
2019-04-11T12:17:06.789Z,5.50
2019-04-11T12:18:07.548Z,6.00
2019-04-11T12:19:06.774Z,5.90
2019-04-11T12:20:11.056Z,5.60
2019-04-11T12:21:06.130Z,5.50
2019-04-11T12:22:06.256Z,5.90
2019-04-11T12:23:06.650Z,5.60
2019-04-11T12:24:07.069Z,5.90
2019-04-11T12:25:07.017Z,5.50
2019-04-11T12:26:05.820Z,5.80
2019-04-11T12:27:06.488Z,8.80
2019-04-11T12:28:11.103Z,31.10
2019-04-11T12:29:05.989Z,6.40
2019-04-11T12:30:07.400Z,5.60
2019-04-11T12:31:05.580Z,5.70
2019-04-11T12:32:06.272Z,5.70
2019-04-11T12:33:05.567Z,5.40
2019-04-11T12:34:06.038Z,5.80
2019-04-11T12:35:06.124Z,5.70
2019-04-11T12:36:05.551Z,5.40
2019-04-11T12:37:06.200Z,5.40
2019-04-11T12:38:05.186Z,5.80
2019-04-11T12:39:05.176Z,5.50
2019-04-11T12:40:05.083Z,5.70
2019-04-11T12:41:05.068Z,5.50
2019-04-11T12:42:05.014Z,6.00
2019-04-11T12:43:04.926Z,5.70
2019-04-11T12:44:04.903Z,5.90
2019-04-11T12:45:06.432Z,5.60
2019-04-11T12:46:04.828Z,5.80
2019-04-11T12:47:07.596Z,5.50
2019-04-11T12:48:04.675Z,5.60
2019-04-11T12:49:04.682Z,5.50
2019-04-11T12:50:04.576Z,5.40
2019-04-11T12:51:04.568Z,5.80
2019-04-11T12:52:04.462Z,5.40
2019-04-11T12:53:04.454Z,5.40
2019-04-11T12:54:04.383Z,5.60
2019-04-11T12:55:04.316Z,5.80
2019-04-11T12:56:04.302Z,5.30
2019-04-11T12:57:04.206Z,5.60
2019-04-11T12:58:04.151Z,5.70
2019-04-11T12:59:04.157Z,5.60
2019-04-11T13:00:04.098Z,5.40
2019-04-11T13:01:03.996Z,5.60
2019-04-11T13:02:03.955Z,5.60
2019-04-11T13:03:03.897Z,5.60
2019-04-11T13:04:03.863Z,5.60
2019-04-11T13:05:03.884Z,5.60
2019-04-11T13:06:03.730Z,6.10
2019-04-11T13:07:03.683Z,6.30
2019-04-11T13:08:03.624Z,5.70
2019-04-11T13:09:03.669Z,5.80
2019-04-11T13:10:03.552Z,5.40
2019-04-11T13:11:03.471Z,5.50
2019-04-11T13:12:03.440Z,5.40
2019-04-11T13:13:03.396Z,5.50
2019-04-11T13:14:03.346Z,5.70
2019-04-11T13:15:03.288Z,5.70
2019-04-11T13:16:11.937Z,5.40
2019-04-11T13:17:03.160Z,5.50
2019-04-11T13:18:03.120Z,5.60
2019-04-11T13:19:03.080Z,6.10
2019-04-11T13:20:04.827Z,5.10
2019-04-11T13:21:02.966Z,5.50
2019-04-11T13:22:02.916Z,5.00
2019-04-11T13:23:02.862Z,5.50
2019-04-11T13:24:02.875Z,5.30